Time;durP1;ratioP1;P1;durP2;ratioP2;P2;SDS_P1;SDS_P2;PMS_P1;PMS_P2;Temp;Humidity;BMP_temperature;BMP_pressure;BME280_temperature;BME280_humidity;BME280_pressure;Samples;Min_cycle;Max_cycle;Signal;HPM_P1;HPM_P2
2021/12/09 00:01:01;;;;;;;17.90;11.88;;;1.70;99.90;;;;;;5002480;28;89259;-34
2021/12/09 00:03:32;;;;;;;15.50;10.60;;;1.70;99.90;;;;;;5000630;28;88724;-39
2021/12/09 00:05:59;;;;;;;13.75;10.18;;;1.80;99.90;;;;;;5000843;28;91845;-37
2021/12/09 00:08:28;;;;;;;14.00;10.57;;;1.80;99.90;;;;;;5002725;28;88713;-36
2021/12/09 00:10:55;;;;;;;14.55;10.65;;;1.80;99.90;;;;;;5002362;28;88869;-34
2021/12/09 00:13:21;;;;;;;19.48;11.85;;;1.70;99.90;;;;;;5001930;28;88350;-37
2021/12/09 00:15:47;;;;;;;13.73;10.05;;;1.70;99.90;;;;;;5001288;28;89924;-35
2021/12/09 00:18:13;;;;;;;12.52;10.48;;;1.70;99.90;;;;;;5002523;28;91175;-34
2021/12/09 00:20:39;;;;;;;15.48;10.68;;;1.60;99.90;;;;;;4983457;28;89188;-33
2021/12/09 00:23:04;;;;;;;13.88;10.55;;;1.60;99.90;;;;;;5001401;28;87862;-37
2021/12/09 00:25:30;;;;;;;17.33;10.63;;;1.60;99.90;;;;;;5001256;28;90346;-37
2021/12/09 00:27:56;;;;;;;16.40;10.68;;;1.60;99.90;;;;;;5000504;28;89627;-38
2021/12/09 00:30:22;;;;;;;19.48;11.38;;;1.60;99.90;;;;;;5002058;28;89438;-37
2021/12/09 00:32:48;;;;;;;14.88;10.82;;;1.60;99.90;;;;;;5001476;28;88362;-35
2021/12/09 00:35:17;;;;;;;15.15;11.38;;;1.60;99.90;;;;;;5001696;28;90905;-36
2021/12/09 00:37:57;;;;;;;12.80;11.23;;;1.60;99.90;;;;;;5000139;28;89797;-34
2021/12/09 00:40:22;;;;;;;12.95;10.40;;;1.60;99.90;;;;;;5000901;28;88152;-36
2021/12/09 00:42:48;;;;;;;14.18;11.43;;;1.50;99.90;;;;;;5001415;28;89333;-33
2021/12/09 00:45:14;;;;;;;17.73;11.70;;;1.50;99.90;;;;;;5000331;28;91877;-40
2021/12/09 00:47:40;;;;;;;18.92;11.35;;;1.50;99.90;;;;;;5001537;28;90377;-35
2021/12/09 00:50:06;;;;;;;21.27;11.18;;;1.50;99.90;;;;;;5001127;28;88843;-34
2021/12/09 00:52:32;;;;;;;14.77;12.50;;;1.50;99.90;;;;;;5001544;28;88918;-34
2021/12/09 00:54:59;;;;;;;17.45;12.60;;;1.60;99.90;;;;;;5000209;28;90262;-35
2021/12/09 00:57:26;;;;;;;15.88;11.20;;;1.60;99.90;;;;;;5001662;28;88257;-33
2021/12/09 00:59:52;;;;;;;13.23;11.25;;;1.60;99.90;;;;;;5001418;28;89214;-31
2021/12/09 01:02:18;;;;;;;14.48;13.02;;;1.60;99.90;;;;;;5001936;28;88608;-37
2021/12/09 01:04:46;;;;;;;15.57;12.90;;;1.50;99.90;;;;;;5001023;28;89421;-40
2021/12/09 01:07:14;;;;;;;12.80;10.47;;;1.50;99.90;;;;;;5001814;28;89651;-34
2021/12/09 01:09:40;;;;;;;14.32;11.90;;;1.50;99.90;;;;;;5001796;28;87574;-35
2021/12/09 01:12:07;;;;;;;21.63;12.20;;;1.50;99.90;;;;;;4999847;28;87657;-36
2021/12/09 01:14:34;;;;;;;17.20;11.50;;;1.50;99.90;;;;;;5000691;28;92188;-35
2021/12/09 01:17:00;;;;;;;14.97;11.93;;;1.50;99.90;;;;;;5001433;28;90515;-35
2021/12/09 01:21:56;;;;;;;16.83;11.80;;;1.60;99.90;;;;;;4968732;28;88922;-35
2021/12/09 01:24:21;;;;;;;22.15;12.23;;;1.50;99.90;;;;;;4960836;28;89912;-34
2021/12/09 01:26:49;;;;;;;20.23;12.73;;;1.50;99.90;;;;;;4959183;28;90644;-37
2021/12/09 01:29:19;;;;;;;15.60;11.88;;;1.50;99.90;;;;;;4960775;28;87730;-33
2021/12/09 01:31:53;;;;;;;12.77;11.57;;;1.50;99.90;;;;;;4961361;28;89860;-34
2021/12/09 01:34:21;;;;;;;15.35;11.75;;;1.50;99.90;;;;;;4961357;28;90399;-36
2021/12/09 01:36:48;;;;;;;12.77;11.47;;;1.50;99.90;;;;;;4975551;28;88602;-37
2021/12/09 01:39:14;;;;;;;18.13;12.30;;;1.50;99.90;;;;;;4960977;28;89879;-35
2021/12/09 01:41:40;;;;;;;17.38;11.85;;;1.50;99.90;;;;;;4959299;28;87624;-33
2021/12/09 01:44:06;;;;;;;15.25;11.63;;;1.50;99.90;;;;;;4961584;28;89292;-32
2021/12/09 01:46:32;;;;;;;18.13;12.07;;;1.50;99.90;;;;;;4958971;28;91299;-37
2021/12/09 01:48:58;;;;;;;16.10;11.95;;;1.50;99.90;;;;;;4961722;28;87804;-34
2021/12/09 01:51:24;;;;;;;16.00;13.55;;;1.50;99.90;;;;;;4961091;28;89754;-33
2021/12/09 01:53:50;;;;;;;14.75;11.70;;;1.50;99.90;;;;;;4959172;28;90649;-38
2021/12/09 01:56:23;;;;;;;14.63;11.40;;;1.50;99.90;;;;;;4961228;28;89653;-34
2021/12/09 01:59:02;;;;;;;14.85;12.52;;;1.40;99.90;;;;;;4960257;28;89821;-37
2021/12/09 02:01:28;;;;;;;15.80;11.65;;;1.50;99.90;;;;;;4959842;28;89021;-37
2021/12/09 02:03:54;;;;;;;19.95;12.55;;;1.40;99.90;;;;;;4959065;28;91913;-34
2021/12/09 02:06:20;;;;;;;19.88;13.13;;;1.40;99.90;;;;;;4959382;28;89488;-36
2021/12/09 02:08:46;;;;;;;14.35;12.85;;;1.40;99.90;;;;;;4961341;28;89593;-39
2021/12/09 02:11:12;;;;;;;17.10;12.75;;;1.40;99.90;;;;;;4960679;28;88263;-34
2021/12/09 02:13:37;;;;;;;17.90;13.43;;;1.40;99.90;;;;;;4959969;28;90276;-33
2021/12/09 02:16:04;;;;;;;17.15;13.60;;;1.40;99.90;;;;;;4959564;28;90068;-37
2021/12/09 02:18:29;;;;;;;22.42;14.30;;;1.40;99.90;;;;;;4960280;28;88387;-34
2021/12/09 02:21:14;;;;;;;16.35;12.35;;;1.40;99.90;;;;;;4958832;28;87744;-39
2021/12/09 02:23:43;;;;;;;22.83;13.15;;;1.40;99.90;;;;;;4959031;28;93465;-37
2021/12/09 02:26:09;;;;;;;;;;;1.50;99.90;;;;;;4961248;28;89249;-34
2021/12/09 02:28:35;;;;;;;14.00;12.55;;;1.50;99.90;;;;;;4962519;28;89751;-37
2021/12/09 02:31:01;;;;;;;20.80;12.48;;;1.40;99.90;;;;;;4944086;28;87548;-39
2021/12/09 02:33:26;;;;;;;15.68;11.65;;;1.40;99.90;;;;;;4960426;28;89461;-38
2021/12/09 02:35:52;;;;;;;15.48;12.30;;;1.50;99.90;;;;;;4959694;28;89677;-34
2021/12/09 02:38:18;;;;;;;18.33;12.82;;;1.50;99.90;;;;;;4958935;28;89550;-37
2021/12/09 02:40:43;;;;;;;23.52;12.43;;;1.40;99.90;;;;;;4958734;28;87711;-37
2021/12/09 02:43:09;;;;;;;16.55;13.10;;;1.50;99.90;;;;;;4961306;28;89763;-31
2021/12/09 02:45:36;;;;;;;19.00;13.30;;;1.50;99.90;;;;;;4958622;28;89401;-35
2021/12/09 02:48:02;;;;;;;17.55;13.60;;;1.50;99.90;;;;;;4961919;28;89810;-40
2021/12/09 02:50:28;;;;;;;16.92;13.70;;;1.50;99.90;;;;;;4963924;28;89771;-33
2021/12/09 02:52:53;;;;;;;19.80;13.55;;;1.50;99.90;;;;;;4963210;28;90271;-36
2021/12/09 02:55:19;;;;;;;21.85;15.07;;;1.50;99.90;;;;;;4963890;28;90313;-34
2021/12/09 02:57:45;;;;;;;21.20;12.55;;;1.50;99.90;;;;;;4963118;28;88078;-32
2021/12/09 03:00:12;;;;;;;20.67;13.77;;;1.50;99.90;;;;;;4963754;28;88588;-36
2021/12/09 03:02:37;;;;;;;22.92;14.10;;;1.50;99.90;;;;;;4962100;28;89569;-35
2021/12/09 03:05:06;;;;;;;18.02;13.70;;;1.50;99.90;;;;;;4962683;28;90042;-37
2021/12/09 03:07:37;;;;;;;15.68;13.48;;;1.50;99.90;;;;;;4963451;28;88248;-32
2021/12/09 03:10:09;;;;;;;17.40;13.32;;;1.50;99.90;;;;;;4963139;28;87477;-32
2021/12/09 03:12:39;;;;;;;21.55;13.45;;;1.50;99.90;;;;;;4963017;28;89947;-37
2021/12/09 03:15:06;;;;;;;18.70;13.13;;;1.50;99.90;;;;;;4962083;28;88615;-33
2021/12/09 03:17:33;;;;;;;18.23;13.18;;;1.40;99.90;;;;;;4962656;28;88855;-37
2021/12/09 03:19:59;;;;;;;22.40;14.25;;;1.40;99.90;;;;;;4963512;28;87810;-32
2021/12/09 03:22:24;;;;;;;13.98;11.60;;;1.30;99.90;;;;;;4962335;28;90178;-33
2021/12/09 03:24:51;;;;;;;16.15;13.05;;;1.30;99.90;;;;;;4961660;28;89510;-40
2021/12/09 03:27:16;;;;;;;16.08;13.88;;;1.30;99.90;;;;;;4963569;28;88983;-37
2021/12/09 03:29:42;;;;;;;14.75;12.82;;;1.20;99.90;;;;;;4961343;28;88268;-37
2021/12/09 03:32:11;;;;;;;16.33;13.05;;;1.20;99.90;;;;;;4963268;28;90375;-31
2021/12/09 03:34:38;;;;;;;16.20;12.15;;;1.10;99.90;;;;;;4961950;28;89615;-37
2021/12/09 03:37:08;;;;;;;16.65;14.38;;;1.10;99.90;;;;;;4962485;28;89079;-36
2021/12/09 03:39:37;;;;;;;20.98;14.23;;;1.00;99.90;;;;;;4961592;28;87601;-36
2021/12/09 03:42:06;;;;;;;18.98;13.40;;;1.00;99.90;;;;;;4962983;28;89360;-32
2021/12/09 03:44:32;;;;;;;18.15;13.85;;;0.90;99.90;;;;;;4962311;28;89887;-39
2021/12/09 03:47:00;;;;;;;17.33;12.70;;;0.90;99.90;;;;;;4963451;28;88346;-33
2021/12/09 03:49:26;;;;;;;17.40;13.18;;;0.90;99.90;;;;;;4962381;28;89624;-34
2021/12/09 03:51:53;;;;;;;19.83;13.05;;;0.80;99.90;;;;;;4962388;28;90171;-36
2021/12/09 03:54:19;;;;;;;16.88;12.45;;;0.80;99.90;;;;;;4961417;28;90116;-32
2021/12/09 03:56:45;;;;;;;19.38;14.38;;;0.70;99.90;;;;;;4961131;28;90363;-32
2021/12/09 03:59:11;;;;;;;18.42;13.98;;;0.70;99.90;;;;;;4962197;28;88241;-33
2021/12/09 04:01:39;;;;;;;15.38;12.80;;;0.70;99.90;;;;;;4962132;28;90696;-40
2021/12/09 04:04:06;;;;;;;16.63;13.27;;;0.60;99.90;;;;;;4962421;28;88447;-39
2021/12/09 04:06:32;;;;;;;15.50;13.90;;;0.60;99.90;;;;;;4961513;28;88099;-38
2021/12/09 04:09:00;;;;;;;18.50;13.50;;;0.60;99.90;;;;;;4962915;28;89839;-34
2021/12/09 04:11:26;;;;;;;16.15;13.93;;;0.50;99.90;;;;;;4962769;28;88943;-40
2021/12/09 04:13:52;;;;;;;19.33;15.18;;;0.50;99.90;;;;;;4961152;28;90980;-35
2021/12/09 04:16:18;;;;;;;21.10;15.63;;;0.40;99.90;;;;;;4961743;28;88732;-36
2021/12/09 04:18:44;;;;;;;18.05;14.05;;;0.40;99.90;;;;;;4962576;28;88708;-32
2021/12/09 04:21:10;;;;;;;16.40;14.43;;;0.40;99.90;;;;;;4977003;28;89947;-33
2021/12/09 04:23:36;;;;;;;17.23;13.60;;;0.40;99.90;;;;;;4961888;28;89966;-34
2021/12/09 04:26:03;;;;;;;18.02;14.60;;;0.50;99.90;;;;;;4961711;28;88353;-35
2021/12/09 04:28:29;;;;;;;20.55;13.73;;;0.50;99.90;;;;;;4962062;28;87570;-35
2021/12/09 04:30:55;;;;;;;16.58;14.65;;;0.50;99.90;;;;;;4961198;28;90362;-39
2021/12/09 04:33:20;;;;;;;24.13;14.50;;;0.50;99.90;;;;;;4962338;28;89654;-32
2021/12/09 04:35:46;;;;;;;18.35;13.82;;;0.50;99.90;;;;;;4960278;28;88183;-30
2021/12/09 04:38:12;;;;;;;21.92;15.55;;;0.50;99.90;;;;;;4962762;28;88677;-33
2021/12/09 04:40:38;;;;;;;16.75;15.02;;;0.50;99.90;;;;;;4960567;28;89997;-36
2021/12/09 04:43:03;;;;;;;20.70;16.60;;;0.50;99.90;;;;;;4960689;28;90087;-36
2021/12/09 04:45:30;;;;;;;21.08;17.00;;;0.60;99.90;;;;;;4962537;28;88295;-34
2021/12/09 04:47:57;;;;;;;19.95;15.90;;;0.60;99.90;;;;;;4961895;28;87619;-34
2021/12/09 04:50:23;;;;;;;24.70;16.70;;;0.60;99.90;;;;;;4960529;28;90492;-35
2021/12/09 04:52:48;;;;;;;21.17;16.90;;;0.60;99.90;;;;;;4962150;28;89494;-32
2021/12/09 04:55:14;;;;;;;22.75;16.88;;;0.60;99.90;;;;;;4961057;28;87648;-32
2021/12/09 04:57:40;;;;;;;23.70;16.05;;;0.70;99.90;;;;;;4962003;28;87594;-37
2021/12/09 05:00:16;;;;;;;21.17;16.70;;;0.60;99.90;;;;;;4959687;28;90914;-34
2021/12/09 05:05:10;;;;;;;22.73;17.35;;;0.60;99.90;;;;;;4962229;28;88935;-36
2021/12/09 05:07:36;;;;;;;27.85;16.75;;;0.60;99.90;;;;;;4959912;28;89111;-34
2021/12/09 05:10:03;;;;;;;23.58;17.20;;;0.60;99.90;;;;;;4959899;28;90047;-34
2021/12/09 05:12:29;;;;;;;27.95;17.50;;;0.60;99.90;;;;;;4960241;28;90248;-34
2021/12/09 05:14:55;;;;;;;23.98;18.40;;;0.60;99.90;;;;;;4959496;28;89286;-37
2021/12/09 05:17:20;;;;;;;19.90;16.60;;;0.60;99.90;;;;;;4960426;28;88137;-35
2021/12/09 05:19:46;;;;;;;23.15;17.13;;;0.60;99.90;;;;;;4960661;28;92158;-33
2021/12/09 05:22:13;;;;;;;18.95;16.88;;;0.50;99.90;;;;;;4976301;28;89039;-31
2021/12/09 05:24:40;;;;;;;19.15;16.52;;;0.60;99.90;;;;;;4961166;28;89691;-38
2021/12/09 05:27:07;;;;;;;17.80;15.90;;;0.50;99.90;;;;;;4960486;28;87920;-32
2021/12/09 05:29:40;;;;;;;19.02;15.40;;;0.50;99.90;;;;;;4959536;28;90350;-34
2021/12/09 05:32:11;;;;;;;24.60;17.77;;;0.60;99.90;;;;;;4959987;28;88702;-33
2021/12/09 05:34:42;;;;;;;24.55;16.83;;;0.60;99.90;;;;;;4959574;28;88480;-32
2021/12/09 05:37:10;;;;;;;24.30;16.58;;;0.60;99.90;;;;;;4943299;28;89493;-39
2021/12/09 05:39:39;;;;;;;;;;;0.60;99.90;;;;;;4961728;28;89634;-36
2021/12/09 05:42:06;;;;;;;20.75;16.05;;;0.60;99.90;;;;;;4962610;28;91089;-32
2021/12/09 05:44:33;;;;;;;31.17;17.00;;;0.50;99.90;;;;;;4960605;28;90429;-37
2021/12/09 05:46:59;;;;;;;21.52;16.13;;;0.60;99.90;;;;;;4959049;28;88253;-35
2021/12/09 05:49:25;;;;;;;27.15;16.80;;;0.60;99.90;;;;;;4961346;28;89114;-31
2021/12/09 05:51:50;;;;;;;23.17;16.63;;;0.60;99.90;;;;;;4959198;28;88442;-36
2021/12/09 05:54:16;;;;;;;17.40;15.50;;;0.60;99.90;;;;;;4959475;28;90025;-38
2021/12/09 05:56:43;;;;;;;30.65;17.13;;;0.50;99.90;;;;;;4960795;28;88834;-32
2021/12/09 05:59:09;;;;;;;28.15;18.60;;;0.50;99.90;;;;;;4959189;28;90741;-34
2021/12/09 06:01:36;;;;;;;22.77;17.33;;;0.50;99.90;;;;;;4960264;28;88953;-35
2021/12/09 06:04:03;;;;;;;26.52;16.88;;;0.50;99.90;;;;;;4959990;28;87589;-35
2021/12/09 06:06:29;;;;;;;22.42;17.45;;;0.50;99.90;;;;;;4959181;28;87757;-35
2021/12/09 06:08:54;;;;;;;23.38;16.98;;;0.50;99.90;;;;;;4960483;28;92921;-38
2021/12/09 06:11:20;;;;;;;20.67;17.05;;;0.50;99.90;;;;;;4961073;28;89168;-32
2021/12/09 06:13:47;;;;;;;28.58;18.50;;;0.50;99.90;;;;;;4960121;28;87569;-35
2021/12/09 06:16:13;;;;;;;26.25;17.33;;;0.60;99.90;;;;;;4961116;28;89233;-36
2021/12/09 06:18:39;;;;;;;24.10;17.35;;;0.60;99.90;;;;;;4958612;28;92551;-32
2021/12/09 06:21:05;;;;;;;21.10;18.92;;;0.60;99.90;;;;;;4958782;28;91702;-37
2021/12/09 06:23:31;;;;;;;28.63;19.60;;;0.60;99.90;;;;;;4963323;28;88567;-30
2021/12/09 06:25:57;;;;;;;24.90;17.67;;;0.70;99.90;;;;;;4962472;28;89431;-32
2021/12/09 06:28:23;;;;;;;30.00;17.98;;;0.60;99.90;;;;;;4963647;28;91414;-33
2021/12/09 06:30:49;;;;;;;25.80;19.15;;;0.70;99.90;;;;;;4962756;28;90091;-31
2021/12/09 06:33:15;;;;;;;22.67;18.73;;;0.70;99.90;;;;;;4962803;28;88021;-36
2021/12/09 06:35:40;;;;;;;22.10;19.15;;;0.60;99.90;;;;;;4962471;28;88073;-31
2021/12/09 06:38:11;;;;;;;25.92;18.35;;;0.70;99.90;;;;;;4963700;28;90156;-35
2021/12/09 06:40:37;;;;;;;25.98;19.27;;;0.60;99.90;;;;;;4963930;28;89371;-37
2021/12/09 06:43:03;;;;;;;21.80;18.23;;;0.70;99.90;;;;;;4964383;28;88767;-33
2021/12/09 06:45:30;;;;;;;21.98;15.82;;;0.70;99.90;;;;;;4964113;28;89075;-30
2021/12/09 06:47:55;;;;;;;28.50;19.55;;;0.70;99.90;;;;;;4963057;28;90316;-31
2021/12/09 06:50:21;;;;;;;19.45;15.25;;;0.60;99.90;;;;;;4964299;28;89447;-36
2021/12/09 06:52:47;;;;;;;24.98;19.23;;;0.70;99.90;;;;;;4964014;28;87675;-35
2021/12/09 06:55:15;;;;;;;28.08;18.73;;;0.70;99.90;;;;;;4963596;28;89174;-40
2021/12/09 06:57:44;;;;;;;23.02;17.38;;;0.80;99.90;;;;;;4961466;28;90391;-37
2021/12/09 07:00:13;;;;;;;25.10;17.13;;;0.70;99.90;;;;;;4962842;28;90424;-31
2021/12/09 07:02:38;;;;;;;25.35;19.33;;;0.70;99.90;;;;;;4962696;28;88724;-36
2021/12/09 07:05:07;;;;;;;22.73;17.88;;;0.70;99.90;;;;;;4963328;28;87582;-36
2021/12/09 07:07:33;;;;;;;33.38;18.42;;;0.70;99.90;;;;;;4962744;28;89692;-36
2021/12/09 07:09:58;;;;;;;25.30;17.77;;;0.70;99.90;;;;;;4963333;28;89735;-34
2021/12/09 07:12:24;;;;;;;19.15;15.38;;;0.70;99.90;;;;;;4962461;28;88750;-32
2021/12/09 07:14:50;;;;;;;23.15;17.58;;;0.60;99.90;;;;;;4963297;28;89323;-39
2021/12/09 07:17:16;;;;;;;26.90;19.40;;;0.60;99.90;;;;;;4963015;28;89988;-38
2021/12/09 07:19:42;;;;;;;20.02;17.55;;;0.50;99.90;;;;;;4962512;28;90133;-34
2021/12/09 07:22:08;;;;;;;22.20;17.42;;;0.50;99.90;;;;;;4963568;28;87616;-35
2021/12/09 07:24:34;;;;;;;31.17;18.95;;;0.40;99.90;;;;;;4961552;28;90060;-32
2021/12/09 07:27:00;;;;;;;25.10;19.10;;;0.40;99.90;;;;;;4961811;28;90386;-36
2021/12/09 07:29:27;;;;;;;23.48;18.98;;;0.40;99.90;;;;;;4963199;28;89610;-32
2021/12/09 07:31:53;;;;;;;31.48;18.85;;;0.40;99.90;;;;;;4962842;28;88946;-37
2021/12/09 07:34:18;;;;;;;26.77;18.67;;;0.40;99.90;;;;;;4962657;28;90303;-32
2021/12/09 07:36:44;;;;;;;25.83;16.58;;;0.40;99.90;;;;;;4971211;28;89238;-32
2021/12/09 07:39:10;;;;;;;28.02;17.58;;;0.40;99.90;;;;;;4982477;28;89471;-38
2021/12/09 07:41:35;;;;;;;21.98;16.77;;;0.30;99.90;;;;;;4982442;28;88004;-35
2021/12/09 07:44:05;;;;;;;23.10;19.15;;;0.30;99.90;;;;;;4983091;28;89456;-32
2021/12/09 07:46:34;;;;;;;25.20;18.10;;;0.30;99.90;;;;;;4981120;28;91591;-31
2021/12/09 07:49:00;;;;;;;22.33;17.90;;;0.30;99.90;;;;;;4982872;28;88810;-32
2021/12/09 07:51:26;;;;;;;25.63;17.40;;;0.30;99.90;;;;;;4983556;28;87467;-32
2021/12/09 07:53:52;;;;;;;25.77;18.17;;;0.30;99.90;;;;;;4980215;28;89854;-36
2021/12/09 07:56:18;;;;;;;24.58;19.15;;;0.20;99.90;;;;;;4917487;27;95256;-34
2021/12/09 07:58:44;;;;;;;29.08;18.40;;;0.20;99.90;;;;;;5002118;28;89117;-33
2021/12/09 08:01:11;;;;;;;25.48;17.58;;;0.20;99.90;;;;;;5001903;28;89184;-32
2021/12/09 08:03:37;;;;;;;32.05;18.85;;;0.30;99.90;;;;;;5002389;28;87460;-37
2021/12/09 08:06:03;;;;;;;27.17;16.33;;;0.30;99.90;;;;;;5000718;28;90995;-32
2021/12/09 08:08:29;;;;;;;23.48;16.15;;;0.30;99.90;;;;;;4984084;28;90339;-32
2021/12/09 08:10:55;;;;;;;18.65;15.60;;;0.40;99.90;;;;;;5001213;28;89850;-35
2021/12/09 08:13:22;;;;;;;30.48;17.60;;;0.40;99.90;;;;;;5001210;28;87705;-37
2021/12/09 08:15:50;;;;;;;24.25;15.05;;;0.50;99.90;;;;;;5001371;28;90378;-36
2021/12/09 08:20:47;;;;;;;21.90;15.30;;;0.70;99.90;;;;;;5001844;28;90137;-39
2021/12/09 08:23:13;;;;;;;25.88;16.42;;;0.80;99.90;;;;;;5002701;28;87556;-35
2021/12/09 08:25:39;;;;;;;19.08;15.98;;;0.90;99.90;;;;;;5017169;28;89105;-36
2021/12/09 08:28:05;;;;;;;24.05;16.13;;;0.90;99.90;;;;;;5000711;28;91575;-35
2021/12/09 08:30:31;;;;;;;23.85;14.27;;;0.90;99.90;;;;;;5002706;28;88778;-31
2021/12/09 08:32:57;;;;;;;21.45;14.95;;;1.00;99.90;;;;;;4933053;27;88837;-32
2021/12/09 08:35:23;;;;;;;24.58;15.80;;;1.00;99.90;;;;;;5002503;28;91268;-35
2021/12/09 08:37:51;;;;;;;21.25;15.95;;;1.10;99.90;;;;;;4999862;28;90067;-38
2021/12/09 08:40:17;;;;;;;20.95;13.32;;;1.20;99.90;;;;;;5001822;28;89830;-30
2021/12/09 08:42:44;;;;;;;24.73;15.50;;;1.30;99.90;;;;;;5001803;28;88370;-34
2021/12/09 08:45:11;;;;;;;22.95;16.38;;;1.40;99.90;;;;;;5000618;28;88932;-33
2021/12/09 08:47:38;;;;;;;24.02;15.25;;;1.50;99.90;;;;;;5001350;28;89790;-34
2021/12/09 08:50:07;;;;;;;17.45;14.90;;;1.60;99.90;;;;;;5001904;28;87537;-32
2021/12/09 08:52:33;;;;;;;16.55;14.75;;;1.60;99.90;;;;;;5000753;28;88312;-36
2021/12/09 08:54:58;;;;;;;21.88;15.50;;;1.70;99.90;;;;;;4999903;28;90479;-37
2021/12/09 08:57:24;;;;;;;20.17;13.25;;;1.70;99.90;;;;;;5001019;28;89520;-35
2021/12/09 08:59:50;;;;;;;18.60;15.13;;;1.80;99.90;;;;;;5001752;28;89528;-34
2021/12/09 09:02:16;;;;;;;16.98;12.63;;;1.90;99.90;;;;;;5001659;28;87667;-36
2021/12/09 09:04:42;;;;;;;18.98;14.88;;;1.90;99.90;;;;;;5001748;28;90566;-32
2021/12/09 09:07:08;;;;;;;18.20;12.65;;;2.00;99.90;;;;;;5000584;28;90209;-31
2021/12/09 09:09:36;;;;;;;20.13;14.48;;;2.10;99.90;;;;;;5001241;28;89303;-38
2021/12/09 09:12:05;;;;;;;19.15;14.32;;;2.20;99.90;;;;;;5001739;28;87926;-37
2021/12/09 09:14:31;;;;;;;23.83;15.85;;;2.30;99.90;;;;;;5002138;28;91356;-31
2021/12/09 09:16:57;;;;;;;17.27;13.77;;;2.40;99.90;;;;;;5001633;28;88396;-31
2021/12/09 09:19:23;;;;;;;21.42;13.30;;;2.60;99.90;;;;;;4988327;28;89080;-35
2021/12/09 09:21:49;;;;;;;20.63;14.23;;;2.80;99.90;;;;;;4994742;28;89439;-33
2021/12/09 09:24:15;;;;;;;20.25;15.05;;;2.90;99.90;;;;;;4999153;28;90049;-36
2021/12/09 09:26:41;;;;;;;18.65;13.30;;;3.00;99.90;;;;;;4997511;28;91684;-39
2021/12/09 09:29:08;;;;;;;18.23;12.98;;;3.00;99.90;;;;;;4998818;28;88044;-37
2021/12/09 09:31:34;;;;;;;22.55;14.07;;;3.10;99.90;;;;;;4998319;28;88400;-33
2021/12/09 09:34:04;;;;;;;16.75;12.75;;;3.00;99.90;;;;;;4998651;28;90753;-39
2021/12/09 09:36:31;;;;;;;18.90;12.70;;;3.00;99.90;;;;;;4997060;28;90977;-33
2021/12/09 09:39:06;;;;;;;16.45;13.27;;;3.00;99.90;;;;;;4980733;28;88670;-35
2021/12/09 09:41:36;;;;;;;22.42;12.32;;;3.00;99.90;;;;;;4977964;28;89046;-40
2021/12/09 09:44:23;;;;;;;18.50;13.43;;;3.10;99.90;;;;;;4978513;28;88978;-32
2021/12/09 09:46:49;;;;;;;18.55;13.38;;;3.00;99.90;;;;;;4985443;28;89798;-32
2021/12/09 09:49:15;;;;;;;14.25;11.45;;;3.00;99.90;;;;;;4998850;28;88249;-34
2021/12/09 09:51:40;;;;;;;24.08;12.93;;;3.00;99.90;;;;;;4997532;28;89780;-39
2021/12/09 09:54:07;;;;;;;16.30;12.68;;;2.90;99.90;;;;;;4997814;28;90833;-39
2021/12/09 09:56:34;;;;;;;18.98;12.57;;;2.90;99.90;;;;;;4980413;28;89870;-33
2021/12/09 09:59:07;;;;;;;22.55;14.40;;;2.90;99.90;;;;;;4977281;28;91326;-33
2021/12/09 10:01:35;;;;;;;16.67;11.18;;;2.90;99.90;;;;;;4998633;28;89489;-32
2021/12/09 10:04:21;;;;;;;;;;;2.90;99.90;;;;;;4998945;28;90037;-35
2021/12/09 10:06:48;;;;;;;13.77;11.20;;;2.90;99.90;;;;;;4997843;28;88976;-34
2021/12/09 10:09:16;;;;;;;20.50;13.43;;;2.90;99.90;;;;;;4998193;28;89379;-37
2021/12/09 10:11:42;;;;;;;17.10;11.82;;;2.90;99.90;;;;;;4998113;28;87716;-34
2021/12/09 10:14:15;;;;;;;19.73;11.45;;;3.00;99.90;;;;;;4998268;28;90211;-33
2021/12/09 10:16:42;;;;;;;14.82;11.35;;;3.10;99.90;;;;;;4997086;28;92171;-37
2021/12/09 10:19:17;;;;;;;17.15;11.15;;;3.10;99.90;;;;;;4996778;28;89949;-35
2021/12/09 10:21:44;;;;;;;17.10;10.63;;;3.10;99.90;;;;;;5000636;28;88643;-35
2021/12/09 10:24:09;;;;;;;15.00;10.90;;;3.30;99.90;;;;;;4999687;28;91049;-31
2021/12/09 10:26:37;;;;;;;13.65;10.95;;;3.30;99.90;;;;;;5007964;28;89463;-33
2021/12/09 10:29:11;;;;;;;15.70;11.18;;;3.30;99.90;;;;;;5005090;28;88116;-32
2021/12/09 10:31:55;;;;;;;18.50;10.35;;;3.40;99.90;;;;;;5008818;28;89616;-35
2021/12/09 10:34:36;;;;;;;13.43;10.10;;;3.50;99.90;;;;;;5012195;28;88985;-33
2021/12/09 10:37:08;;;;;;;14.57;11.02;;;3.50;99.90;;;;;;5006395;28;91354;-33
2021/12/09 10:39:38;;;;;;;14.90;11.13;;;3.50;99.90;;;;;;4990573;28;87988;-32
2021/12/09 10:42:11;;;;;;;14.25;9.73;;;3.60;99.90;;;;;;5014205;28;87570;-36
2021/12/09 10:44:41;;;;;;;15.98;10.05;;;3.70;99.90;;;;;;5003931;28;91945;-40
2021/12/09 10:47:21;;;;;;;18.10;11.13;;;3.70;99.90;;;;;;4998609;28;91032;-35
2021/12/09 10:50:05;;;;;;;13.13;10.57;;;3.70;99.90;;;;;;5002298;28;89561;-35
2021/12/09 10:52:39;;;;;;;13.68;11.32;;;3.80;99.90;;;;;;4995528;28;87628;-38
2021/12/09 10:58:46;;;;;;;11.98;9.82;;;3.90;99.90;;;;;;4997769;22;90309;-38
2021/12/09 11:01:18;;;;;;;16.90;10.65;;;3.80;99.90;;;;;;4974192;28;87638;-33
2021/12/09 11:03:49;;;;;;;15.13;9.88;;;3.80;99.90;;;;;;4969581;28;88459;-36
2021/12/09 11:06:42;;;;;;;12.00;10.48;;;3.70;99.90;;;;;;4967057;28;90085;-36
2021/12/09 11:09:12;;;;;;;13.13;10.73;;;3.70;99.90;;;;;;4969981;28;89905;-33
2021/12/09 11:11:43;;;;;;;13.82;9.95;;;3.70;99.90;;;;;;4968487;28;88822;-31
2021/12/09 11:14:16;;;;;;;13.63;9.90;;;3.70;99.90;;;;;;4991394;28;87582;-33
2021/12/09 11:16:51;;;;;;;13.43;11.50;;;3.70;99.90;;;;;;4972900;28;89026;-33
2021/12/09 11:22:01;;;;;;;13.75;12.18;;;3.70;99.90;;;;;;4965820;28;87844;-35
2021/12/09 11:24:32;;;;;;;12.23;10.98;;;3.60;99.90;;;;;;4971907;28;88487;-36
2021/12/09 11:27:02;;;;;;;16.58;11.95;;;3.70;99.90;;;;;;4971731;28;91201;-33
2021/12/09 11:29:38;;;;;;;19.15;14.50;;;3.60;99.90;;;;;;4983009;28;90461;-37
2021/12/09 11:34:54;;;;;;;14.35;12.55;;;3.60;99.90;;;;;;4966553;28;87709;-32
2021/12/09 11:37:38;;;;;;;25.10;12.87;;;3.60;99.90;;;;;;4961606;28;90522;-37
2021/12/09 11:40:17;;;;;;;17.88;12.60;;;3.60;99.90;;;;;;4966836;28;90503;-36
2021/12/09 11:45:16;;;;;;;20.13;13.27;;;3.70;99.90;;;;;;4984124;22;110934;-40
2021/12/09 11:47:45;;;;;;;16.60;11.77;;;3.70;99.90;;;;;;4981190;28;90292;-32
2021/12/09 11:50:14;;;;;;;16.77;13.55;;;3.70;99.90;;;;;;4981741;28;89307;-34
2021/12/09 11:52:43;;;;;;;19.90;13.40;;;3.70;99.90;;;;;;4979464;28;88279;-38
2021/12/09 11:55:12;;;;;;;22.85;14.65;;;3.70;99.90;;;;;;4980129;28;88884;-33
2021/12/09 11:57:45;;;;;;;17.40;12.27;;;3.70;99.90;;;;;;4980508;28;89884;-35
2021/12/09 12:11:55;;;;;;;17.92;13.57;;;3.80;99.90;;;;;;4979890;28;89961;-36
2021/12/09 12:14:41;;;;;;;19.23;13.48;;;3.80;99.90;;;;;;4980041;28;87640;-32
2021/12/09 12:17:14;;;;;;;20.05;13.80;;;3.80;99.90;;;;;;4980763;28;87425;-35
2021/12/09 12:20:28;;;;;;;18.65;13.13;;;3.80;99.90;;;;;;4981514;28;90991;-33
2021/12/09 12:26:13;;;;;;;20.10;13.95;;;3.70;99.90;;;;;;4982265;28;88095;-33
2021/12/09 12:29:01;;;;;;;18.53;13.97;;;3.90;99.90;;;;;;4978676;28;88784;-37
2021/12/09 12:35:08;;;;;;;20.48;13.68;;;3.80;99.90;;;;;;4981905;28;89900;-38
2021/12/09 12:40:43;;;;;;;18.08;13.10;;;3.90;99.90;;;;;;4980720;28;88802;-33
2021/12/09 12:43:22;;;;;;;17.30;13.80;;;3.80;99.90;;;;;;4981257;28;90395;-32
2021/12/09 12:46:12;;;;;;;18.92;13.82;;;3.80;99.90;;;;;;4983403;28;89587;-33
2021/12/09 12:49:16;;;;;;;28.05;13.38;;;3.80;99.90;;;;;;4984668;28;88480;-33
2021/12/09 12:51:54;;;;;;;29.50;14.02;;;3.80;99.90;;;;;;4975402;28;90020;-36
2021/12/09 12:54:35;;;;;;;22.55;13.60;;;3.80;99.90;;;;;;4980456;28;90916;-34
2021/12/09 12:57:12;;;;;;;21.92;13.35;;;3.90;99.90;;;;;;4980398;28;89678;-32
2021/12/09 12:59:40;;;;;;;22.27;12.75;;;3.80;99.90;;;;;;4979594;28;90372;-32
2021/12/09 13:05:22;;;;;;;27.40;15.45;;;3.90;99.90;;;;;;4975558;28;89944;-39
2021/12/09 13:16:10;;;;;;;21.48;15.65;;;3.90;99.90;;;;;;4980571;28;90746;-30
2021/12/09 13:21:32;;;;;;;19.40;15.02;;;3.80;99.90;;;;;;5017472;28;89158;-35
2021/12/09 13:24:35;;;;;;;23.80;14.85;;;3.80;99.90;;;;;;5020055;28;89141;-33
2021/12/09 13:30:18;;;;;;;23.77;16.05;;;3.90;99.90;;;;;;5019090;28;89085;-34
2021/12/09 13:46:36;;;;;;;21.80;16.13;;;3.90;99.90;;;;;;5010663;27;90411;-32
2021/12/09 13:49:37;;;;;;;20.70;15.05;;;3.90;99.90;;;;;;5012879;27;89658;-36
2021/12/09 13:55:18;;;;;;;25.38;16.25;;;4.00;99.90;;;;;;4989629;27;90242;-36
2021/12/09 13:57:53;;;;;;;28.23;16.10;;;3.90;99.90;;;;;;5014604;27;89216;-32
2021/12/09 14:00:24;;;;;;;25.90;17.58;;;4.00;99.90;;;;;;4995843;28;91311;-34